Time,TemperatureF,DewpointF,PressureIn,WindDirection,WindDirectionDegrees,WindSpeedMPH,WindSpeedGustMPH,Humidity,HourlyPrecipIn,Conditions,Clouds,dailyrainin,SolarRadiationWatts/m^2,SoftwareType,DateUTC
2013-07-29 00:02:00,65.0,55.0,-100.00,North,350,0.0,0.0,71,0.00,,,0.10,0.000000,,2013-07-29 07:02:00,
2013-07-29 00:23:00,63.0,54.0,-100.00,North,4,0.0,0.0,73,0.00,,,0.10,0.000000,,2013-07-29 07:23:00,
2013-07-29 00:33:00,63.0,54.0,-100.00,North,4,0.0,0.0,73,0.00,,,0.10,0.000000,,2013-07-29 07:33:00,
2013-07-29 00:43:00,63.0,54.0,-100.00,North,4,0.0,0.0,73,0.00,,,0.10,0.000000,,2013-07-29 07:43:00,
2013-07-29 00:53:00,63.0,54.0,-100.00,North,4,0.0,0.0,73,0.00,,,0.10,0.000000,,2013-07-29 07:53:00,
2013-07-29 01:02:00,63.0,54.0,-100.00,North,4,0.0,0.0,73,0.00,,,0.10,0.000000,,2013-07-29 08:02:00,
2013-07-29 01:33:00,64.0,54.0,-100.00,NNW,347,0.0,0.0,69,0.00,,,0.10,0.000000,,2013-07-29 08:33:00,
2013-07-29 01:42:00,64.0,54.0,-100.00,NNW,347,0.0,0.0,69,0.00,,,0.10,0.000000,,2013-07-29 08:42:00,
2013-07-29 01:52:00,64.0,54.0,-100.00,NNW,347,0.0,0.0,69,0.00,,,0.10,0.000000,,2013-07-29 08:52:00,
2013-07-29 02:02:00,64.0,54.0,-100.00,NNW,347,0.0,0.0,69,0.00,,,0.10,0.000000,,2013-07-29 09:02:00,
2013-07-29 02:33:00,63.0,53.0,-100.00,North,350,0.0,0.0,71,0.00,,,0.10,0.000000,,2013-07-29 09:33:00,
2013-07-29 02:43:00,63.0,53.0,-100.00,North,350,0.0,0.0,71,0.00,,,0.10,0.000000,,2013-07-29 09:43:00,
2013-07-29 02:53:00,63.0,53.0,-100.00,North,350,0.0,0.0,71,0.00,,,0.10,0.000000,,2013-07-29 09:53:00,
2013-07-29 03:02:00,63.0,53.0,-100.00,North,350,0.0,0.0,71,0.00,,,0.10,0.000000,,2013-07-29 10:02:00,
2013-07-29 03:03:00,63.0,55.0,-100.00,North,355,0.0,0.0,76,0.00,,,0.10,0.000000,,2013-07-29 10:03:00,
2013-07-29 03:38:00,63.0,55.0,-100.00,North,355,0.0,0.0,76,0.00,,,0.10,0.000000,,2013-07-29 10:38:00,
2013-07-29 03:55:00,63.0,55.0,-100.00,North,355,0.0,0.0,76,0.00,,,0.10,0.000000,,2013-07-29 10:55:00,
2013-07-29 04:38:00,61.0,53.0,-100.00,North,0,0.0,0.0,76,0.00,,,0.10,0.000000,,2013-07-29 11:38:00,
2013-07-29 04:47:00,61.0,53.0,-100.00,North,0,0.0,0.0,76,0.00,,,0.10,0.000000,,2013-07-29 11:47:00,
2013-07-29 04:57:00,61.0,53.0,-100.00,North,0,0.0,0.0,76,0.00,,,0.10,0.000000,,2013-07-29 11:57:00,
2013-07-29 05:37:00,60.0,52.0,-100.00,North,359,0.0,0.0,76,0.00,,,-99.99,0.000000,,2013-07-29 12:37:00,
2013-07-29 05:55:00,60.0,52.0,-100.00,North,359,0.0,0.0,76,0.00,,,-99.99,0.000000,,2013-07-29 12:55:00,
2013-07-29 06:02:00,60.0,52.0,-100.00,North,359,0.0,0.0,76,0.00,,,-99.99,0.000000,,2013-07-29 13:02:00,
2013-07-29 06:03:00,62.0,52.0,-100.00,NNW,340,0.0,0.0,70,0.00,,,0.10,2.000000,,2013-07-29 13:03:00,
2013-07-29 06:38:00,62.0,52.0,-100.00,NNW,340,0.0,0.0,70,0.00,,,0.10,2.000000,,2013-07-29 13:38:00,
2013-07-29 06:45:00,62.0,52.0,-100.00,NNW,340,0.0,0.0,70,0.00,,,0.10,2.000000,,2013-07-29 13:45:00,
2013-07-29 06:56:00,62.0,52.0,-100.00,NNW,340,0.0,0.0,70,0.00,,,0.10,2.000000,,2013-07-29 13:56:00,
2013-07-29 07:36:00,62.0,52.0,-100.00,North,349,0.0,0.0,70,0.00,,,0.10,16.000000,,2013-07-29 14:36:00,
2013-07-29 07:47:00,62.0,52.0,-100.00,North,349,0.0,0.0,70,0.00,,,0.10,16.000000,,2013-07-29 14:47:00,
2013-07-29 07:56:00,62.0,52.0,-100.00,North,349,0.0,0.0,70,0.00,,,0.10,16.000000,,2013-07-29 14:56:00,
2013-07-29 08:02:00,62.0,52.0,-100.00,North,349,0.0,0.0,70,0.00,,,0.10,16.000000,,2013-07-29 15:02:00,
2013-07-29 08:03:00,66.0,54.0,-100.00,North,357,0.0,0.0,66,0.00,,,0.10,97.000000,,2013-07-29 15:03:00,
2013-07-29 08:38:00,66.0,54.0,-100.00,North,357,0.0,0.0,66,0.00,,,0.10,97.000000,,2013-07-29 15:38:00,
2013-07-29 08:45:00,66.0,54.0,-100.00,North,357,0.0,0.0,66,0.00,,,0.10,97.000000,,2013-07-29 15:45:00,
2013-07-29 08:55:00,66.0,54.0,-100.00,North,357,0.0,0.0,66,0.00,,,0.10,97.000000,,2013-07-29 15:55:00,
2013-07-29 09:03:00,82.0,55.0,-100.00,NE,39,0.0,0.0,39,-99.99,,,0.10,523.000000,,2013-07-29 16:03:00,
2013-07-29 09:40:00,82.0,55.0,-100.00,NE,39,0.0,0.0,39,-99.99,,,0.10,523.000000,,2013-07-29 16:40:00,
2013-07-29 09:47:00,82.0,55.0,-100.00,NE,39,0.0,0.0,39,-99.99,,,0.10,523.000000,,2013-07-29 16:47:00,
2013-07-29 09:57:00,82.0,55.0,-100.00,NE,39,0.0,0.0,39,-99.99,,,0.10,523.000000,,2013-07-29 16:57:00,
2013-07-29 10:45:00,83.0,54.0,-100.00,WNW,296,0.0,0.0,37,0.00,,,0.10,703.000000,,2013-07-29 17:45:00,
2013-07-29 10:58:00,83.0,54.0,-100.00,WNW,296,0.0,0.0,37,0.00,,,0.10,703.000000,,2013-07-29 17:58:00,
2013-07-29 11:38:00,85.0,53.0,-100.00,WNW,294,0.0,0.0,33,0.00,,,0.10,839.000000,,2013-07-29 18:38:00,
2013-07-29 11:47:00,85.0,53.0,-100.00,WNW,294,0.0,0.0,33,0.00,,,0.10,839.000000,,2013-07-29 18:47:00,
2013-07-29 11:57:00,85.0,53.0,-100.00,WNW,294,0.0,0.0,33,0.00,,,0.10,839.000000,,2013-07-29 18:57:00,
2013-07-29 12:02:00,85.0,53.0,-100.00,WNW,294,0.0,0.0,33,0.00,,,0.10,839.000000,,2013-07-29 19:02:00,
2013-07-29 12:39:00,86.0,54.0,-100.00,WSW,243,0.0,0.0,33,0.00,,,0.10,839.000000,,2013-07-29 19:39:00,
2013-07-29 12:47:00,86.0,54.0,-100.00,WSW,243,0.0,0.0,33,0.00,,,0.10,839.000000,,2013-07-29 19:47:00,
2013-07-29 12:56:00,86.0,54.0,-100.00,WSW,243,0.0,0.0,33,0.00,,,0.10,839.000000,,2013-07-29 19:56:00,
2013-07-29 13:38:00,88.0,54.0,-100.00,NNW,332,0.0,0.0,31,0.00,,,0.10,785.000000,,2013-07-29 20:38:00,
2013-07-29 13:48:00,88.0,54.0,-100.00,NNW,332,0.0,0.0,31,0.00,,,0.10,785.000000,,2013-07-29 20:48:00,
2013-07-29 13:58:00,88.0,54.0,-100.00,NNW,332,0.0,0.0,31,0.00,,,0.10,785.000000,,2013-07-29 20:58:00,
2013-07-29 14:37:00,90.0,53.0,-100.00,NNE,32,0.0,0.0,29,0.00,,,0.10,862.000000,,2013-07-29 21:37:00,
2013-07-29 14:49:00,90.0,53.0,-100.00,NNE,32,0.0,0.0,29,0.00,,,0.10,862.000000,,2013-07-29 21:49:00,
2013-07-29 14:58:00,90.0,53.0,-100.00,NNE,32,0.0,0.0,29,0.00,,,0.10,862.000000,,2013-07-29 21:58:00,
2013-07-29 15:38:00,86.0,51.0,-100.00,NNE,15,0.0,0.0,30,0.00,,,0.10,480.000000,,2013-07-29 22:38:00,
2013-07-29 15:55:00,86.0,51.0,-100.00,NNE,15,0.0,0.0,30,0.00,,,0.10,480.000000,,2013-07-29 22:55:00,
2013-07-29 16:02:00,86.0,51.0,-100.00,NNE,15,0.0,0.0,30,0.00,,,0.10,480.000000,,2013-07-29 23:02:00,
2013-07-29 16:35:00,88.0,51.0,-100.00,SE,136,0.0,0.0,28,0.00,,,0.10,535.000000,,2013-07-29 23:35:00,
2013-07-29 16:55:00,88.0,51.0,-100.00,SE,136,0.0,0.0,28,0.00,,,0.10,535.000000,,2013-07-29 23:55:00,
2013-07-29 17:02:00,88.0,51.0,-100.00,SE,136,0.0,0.0,28,0.00,,,0.10,535.000000,,2013-07-30 00:02:00,
2013-07-29 17:03:00,89.0,52.0,-100.00,NNE,15,0.0,0.0,28,0.00,,,0.10,308.000000,,2013-07-30 00:03:00,
2013-07-29 17:35:00,89.0,52.0,-100.00,NNE,15,0.0,0.0,28,0.00,,,0.10,308.000000,,2013-07-30 00:35:00,
2013-07-29 17:50:00,89.0,52.0,-100.00,NNE,15,0.0,0.0,28,0.00,,,0.10,308.000000,,2013-07-30 00:50:00,
2013-07-29 18:38:00,82.0,47.0,-100.00,WSW,255,0.0,0.0,29,0.00,,,0.00,151.000000,,2013-07-30 01:38:00,
2013-07-29 18:46:00,82.0,47.0,-100.00,WSW,255,0.0,0.0,29,0.00,,,0.00,151.000000,,2013-07-30 01:46:00,
2013-07-29 18:58:00,82.0,47.0,-100.00,WSW,255,0.0,0.0,29,0.00,,,0.00,151.000000,,2013-07-30 01:58:00,
2013-07-29 19:03:00,76.0,51.0,-100.00,SW,224,0.0,0.0,42,0.00,,,0.00,19.000000,,2013-07-30 02:03:00,
2013-07-29 21:02:00,70.0,50.0,-100.00,NW,321,0.0,0.0,49,0.00,,,0.00,3.000000,,2013-07-30 04:02:00,
2013-07-29 21:33:00,68.0,50.0,-100.00,NNW,332,0.0,0.0,52,0.00,,,0.00,0.000000,,2013-07-30 04:33:00,
2013-07-29 21:43:00,68.0,50.0,-100.00,NNW,332,0.0,0.0,52,0.00,,,0.00,0.000000,,2013-07-30 04:43:00,
2013-07-29 21:53:00,68.0,50.0,-100.00,NNW,332,0.0,0.0,52,0.00,,,0.00,0.000000,,2013-07-30 04:53:00,
2013-07-29 22:33:00,66.0,49.0,-100.00,North,358,0.0,0.0,55,0.00,,,0.00,0.000000,,2013-07-30 05:33:00,
2013-07-29 22:45:00,66.0,49.0,-100.00,North,358,0.0,0.0,55,0.00,,,0.00,0.000000,,2013-07-30 05:45:00,
2013-07-29 22:52:00,66.0,49.0,-100.00,North,358,0.0,0.0,55,0.00,,,0.00,0.000000,,2013-07-30 05:52:00,
2013-07-29 23:02:00,66.0,49.0,-100.00,North,358,0.0,0.0,55,0.00,,,0.00,0.000000,,2013-07-30 06:02:00,
2013-07-29 23:33:00,68.0,48.0,-100.00,North,351,0.0,0.0,49,0.00,,,0.00,0.000000,,2013-07-30 06:33:00,
2013-07-29 23:43:00,68.0,48.0,-100.00,North,351,0.0,0.0,49,0.00,,,0.00,0.000000,,2013-07-30 06:43:00,
2013-07-29 23:53:00,68.0,48.0,-100.00,North,351,0.0,0.0,49,0.00,,,0.00,0.000000,,2013-07-30 06:53:00,